createdAt,value
2023-05-20T00:00:02.830Z,12.10
2023-05-20T00:02:31.227Z,12.10
2023-05-20T00:04:59.629Z,12.10
2023-05-20T00:07:28.057Z,12.00
2023-05-20T00:09:56.869Z,12.10
2023-05-20T00:12:25.852Z,12.10
2023-05-20T00:14:55.871Z,12.10
2023-05-20T00:17:28.302Z,12.10
2023-05-20T00:19:56.605Z,12.10
2023-05-20T00:22:25.301Z,12.20
2023-05-20T00:24:53.525Z,12.20
2023-05-20T00:27:21.918Z,12.20
2023-05-20T00:29:50.330Z,12.10
2023-05-20T00:32:18.709Z,12.10
2023-05-20T00:34:57.317Z,12.10
2023-05-20T00:37:25.697Z,12.10
2023-05-20T00:39:56.639Z,12.20
2023-05-20T00:42:26.051Z,12.10
2023-05-20T00:44:54.704Z,12.10
2023-05-20T00:47:27.847Z,12.10
2023-05-20T00:49:58.610Z,12.00
2023-05-20T00:52:27.545Z,12.00
2023-05-20T00:54:55.838Z,12.00
2023-05-20T00:57:24.714Z,12.00
2023-05-20T00:59:52.972Z,12.10
2023-05-20T01:02:21.337Z,12.10
2023-05-20T01:04:50.148Z,12.10
2023-05-20T01:07:20.319Z,12.00
2023-05-20T01:09:48.917Z,12.00
2023-05-20T01:12:20.791Z,12.10
2023-05-20T01:14:51.374Z,12.10
2023-05-20T01:17:22.494Z,12.00
2023-05-20T01:19:51.508Z,12.10
2023-05-20T01:22:21.895Z,11.90
2023-05-20T01:24:53.511Z,11.90
2023-05-20T01:27:22.807Z,11.90
2023-05-20T01:29:52.746Z,12.00
2023-05-20T01:32:25.293Z,12.00
2023-05-20T01:34:54.693Z,12.00
2023-05-20T01:37:25.290Z,12.00
2023-05-20T01:39:56.721Z,12.00
2023-05-20T01:42:28.193Z,11.90
2023-05-20T01:44:56.782Z,11.90
2023-05-20T01:47:25.019Z,12.00
2023-05-20T01:49:54.175Z,11.80
2023-05-20T01:52:23.203Z,11.90
2023-05-20T01:54:51.960Z,12.00
2023-05-20T01:57:22.434Z,12.10
2023-05-20T01:59:51.547Z,12.10
2023-05-20T02:02:20.682Z,11.90
2023-05-20T02:04:52.362Z,12.00
2023-05-20T02:07:21.148Z,12.00
2023-05-20T02:09:49.425Z,11.90
2023-05-20T02:12:18.289Z,11.90
2023-05-20T02:14:50.384Z,11.80
2023-05-20T02:17:19.161Z,11.70
2023-05-20T02:19:47.978Z,11.70
2023-05-20T02:22:16.341Z,11.70
2023-05-20T02:24:44.819Z,11.60
2023-05-20T02:27:14.017Z,11.70
2023-05-20T02:29:42.365Z,11.70
2023-05-20T02:32:12.648Z,11.70
2023-05-20T02:34:41.437Z,11.70
2023-05-20T02:37:10.134Z,11.70
2023-05-20T02:39:38.899Z,11.70
2023-05-20T02:42:07.594Z,11.70
2023-05-20T02:44:35.870Z,11.70
2023-05-20T02:47:04.213Z,11.60
2023-05-20T02:49:34.008Z,11.60
2023-05-20T02:52:04.319Z,11.60
2023-05-20T02:54:33.006Z,11.50
2023-05-20T02:57:02.256Z,11.40
2023-05-20T02:59:30.752Z,11.40
2023-05-20T03:01:59.302Z,11.40
2023-05-20T03:04:28.302Z,11.30
2023-05-20T03:06:58.797Z,11.40
2023-05-20T03:09:27.410Z,11.30
2023-05-20T03:11:55.619Z,11.30
2023-05-20T03:14:23.905Z,11.30
2023-05-20T03:16:52.483Z,11.30
2023-05-20T03:19:21.007Z,11.30
2023-05-20T03:21:50.681Z,11.30
2023-05-20T03:24:20.725Z,11.20
2023-05-20T03:26:49.420Z,11.30
2023-05-20T03:29:19.103Z,11.30
2023-05-20T03:31:47.497Z,11.20
2023-05-20T03:34:15.821Z,11.20
2023-05-20T03:36:44.185Z,11.20
2023-05-20T03:39:12.934Z,11.10
2023-05-20T03:41:42.684Z,11.10
2023-05-20T03:44:10.992Z,11.10
2023-05-20T03:46:39.285Z,11.10
2023-05-20T03:49:07.666Z,11.00
2023-05-20T03:51:36.078Z,11.10
2023-05-20T03:54:04.808Z,11.00
2023-05-20T03:56:33.130Z,11.00
2023-05-20T03:59:02.867Z,10.90
2023-05-20T04:01:32.093Z,10.90
2023-05-20T04:04:00.570Z,10.90
2023-05-20T04:06:28.868Z,10.90
2023-05-20T04:08:57.232Z,10.90
2023-05-20T04:11:26.067Z,10.80
2023-05-20T04:13:54.803Z,10.90
2023-05-20T04:16:24.573Z,10.80
2023-05-20T04:18:53.351Z,10.80
2023-05-20T04:21:22.165Z,10.90
2023-05-20T04:23:50.386Z,10.90
2023-05-20T04:26:18.901Z,10.90
2023-05-20T04:28:48.785Z,10.80
2023-05-20T04:31:17.254Z,10.90
2023-05-20T04:33:47.431Z,11.00
2023-05-20T04:36:17.656Z,10.90
2023-05-20T04:38:48.256Z,10.90
2023-05-20T04:41:17.161Z,10.90
2023-05-20T04:43:49.882Z,10.90
2023-05-20T04:46:18.793Z,11.00
2023-05-20T04:48:48.480Z,11.00
2023-05-20T04:51:16.752Z,10.80
2023-05-20T04:53:46.246Z,10.90
2023-05-20T04:56:15.460Z,10.90
2023-05-20T04:58:43.942Z,10.90
2023-05-20T05:01:12.246Z,10.80
2023-05-20T05:03:41.003Z,11.00
2023-05-20T05:06:10.631Z,11.10
2023-05-20T05:08:39.147Z,11.20
2023-05-20T05:11:07.942Z,11.10
2023-05-20T05:13:36.833Z,11.10
2023-05-20T05:16:05.586Z,11.20
2023-05-20T05:18:34.563Z,11.20
2023-05-20T05:21:04.450Z,11.20
2023-05-20T05:23:34.877Z,11.30
2023-05-20T05:26:03.120Z,11.30
2023-05-20T05:28:31.423Z,11.30
2023-05-20T05:31:02.254Z,11.30
2023-05-20T05:33:31.380Z,11.20
2023-05-20T05:36:01.184Z,11.30
2023-05-20T05:38:29.881Z,11.40
2023-05-20T05:41:00.160Z,11.50
2023-05-20T05:43:28.487Z,11.50
2023-05-20T05:45:57.365Z,11.50
2023-05-20T05:48:25.736Z,11.40
2023-05-20T05:50:54.694Z,11.60
2023-05-20T05:53:23.142Z,11.50
2023-05-20T05:55:51.633Z,11.30
2023-05-20T05:58:21.341Z,11.50
2023-05-20T06:00:53.103Z,11.70
2023-05-20T06:03:21.655Z,11.50
2023-05-20T06:05:50.327Z,11.80
2023-05-20T06:08:19.000Z,11.90
2023-05-20T06:10:50.229Z,11.90
2023-05-20T06:13:20.157Z,11.80
2023-05-20T06:15:50.853Z,11.90
2023-05-20T06:18:19.169Z,12.00
2023-05-20T06:20:48.118Z,12.10
2023-05-20T06:23:17.206Z,11.90
2023-05-20T06:25:45.732Z,11.90
2023-05-20T06:28:14.025Z,11.90
2023-05-20T06:30:44.047Z,11.80
2023-05-20T06:33:12.653Z,11.60
2023-05-20T06:35:40.977Z,11.70
2023-05-20T06:38:09.338Z,11.80
2023-05-20T06:40:37.959Z,11.80
2023-05-20T06:43:06.277Z,11.80
2023-05-20T06:45:34.869Z,12.00
2023-05-20T06:48:05.400Z,12.10
2023-05-20T06:50:33.725Z,12.20
2023-05-20T06:53:02.313Z,12.40
2023-05-20T06:55:30.893Z,12.40
2023-05-20T06:58:00.018Z,12.50
2023-05-20T07:00:28.512Z,12.50
2023-05-20T07:02:56.932Z,12.50
2023-05-20T07:05:28.924Z,12.80
2023-05-20T07:07:57.256Z,13.00
2023-05-20T07:10:25.553Z,12.60
2023-05-20T07:12:54.100Z,12.70
2023-05-20T07:15:22.507Z,12.50
2023-05-20T07:17:50.782Z,12.50
2023-05-20T07:20:19.232Z,12.70
2023-05-20T07:22:50.834Z,12.70
2023-05-20T07:25:19.279Z,12.70
2023-05-20T07:27:48.042Z,12.60
2023-05-20T07:30:16.514Z,12.90
2023-05-20T07:32:44.921Z,12.90
2023-05-20T07:35:13.335Z,12.90
2023-05-20T07:37:51.607Z,13.00
2023-05-20T07:40:20.414Z,12.70
2023-05-20T07:42:49.056Z,12.80
2023-05-20T07:45:17.500Z,12.90
2023-05-20T07:47:45.841Z,13.00
2023-05-20T07:50:14.342Z,13.10
2023-05-20T07:52:55.193Z,13.30
2023-05-20T07:55:26.280Z,13.20
2023-05-20T07:57:55.023Z,12.80
2023-05-20T08:00:23.486Z,12.90
2023-05-20T08:02:52.025Z,13.00
2023-05-20T08:05:20.601Z,13.00
2023-05-20T08:07:49.455Z,13.20
2023-05-20T08:10:17.829Z,13.30
2023-05-20T08:12:48.089Z,13.30
2023-05-20T08:15:16.611Z,13.20
2023-05-20T08:17:45.054Z,12.90
2023-05-20T08:20:14.518Z,13.00
2023-05-20T08:22:43.363Z,13.00
2023-05-20T08:25:11.884Z,13.20
2023-05-20T08:27:41.960Z,13.30
2023-05-20T08:30:12.905Z,13.30
2023-05-20T08:32:41.644Z,13.30
2023-05-20T08:35:13.402Z,13.30
2023-05-20T08:37:41.739Z,13.40
2023-05-20T08:40:11.867Z,13.80
2023-05-20T08:42:43.481Z,13.80
2023-05-20T08:45:14.340Z,13.80
2023-05-20T08:47:43.931Z,14.00
2023-05-20T08:50:13.357Z,14.00
2023-05-20T08:52:45.665Z,14.10
2023-05-20T08:55:17.381Z,13.80
2023-05-20T08:57:47.311Z,14.00
2023-05-20T09:00:20.072Z,13.90
2023-05-20T09:02:48.604Z,14.00
2023-05-20T09:05:18.260Z,13.90
2023-05-20T09:07:47.230Z,13.40
2023-05-20T09:10:16.656Z,13.40
2023-05-20T09:12:45.479Z,13.50
2023-05-20T09:15:13.917Z,13.40
2023-05-20T09:17:43.851Z,13.00
2023-05-20T09:20:14.128Z,13.20
2023-05-20T09:22:42.448Z,13.00
2023-05-20T09:25:12.412Z,13.20
2023-05-20T09:27:41.639Z,13.10
2023-05-20T09:30:12.800Z,13.20
2023-05-20T09:32:41.656Z,13.50
2023-05-20T09:35:15.584Z,13.70
2023-05-20T09:37:45.226Z,13.80
2023-05-20T09:40:17.641Z,13.80
2023-05-20T09:42:51.620Z,14.40
2023-05-20T09:45:20.518Z,14.30
2023-05-20T09:47:49.424Z,14.50
2023-05-20T09:50:21.264Z,14.50
2023-05-20T09:52:50.844Z,14.20
2023-05-20T09:55:20.081Z,14.10
2023-05-20T09:57:48.715Z,14.10
2023-05-20T10:00:21.018Z,14.20
2023-05-20T10:02:52.072Z,14.20
2023-05-20T10:05:24.215Z,14.80
2023-05-20T10:08:28.248Z,15.30
2023-05-20T10:11:08.174Z,15.90
2023-05-20T10:13:52.046Z,16.50
2023-05-20T10:16:30.744Z,16.90
2023-05-20T10:19:10.107Z,16.90
2023-05-20T10:21:39.885Z,17.50
2023-05-20T10:24:09.204Z,17.20
2023-05-20T10:26:38.335Z,16.50
2023-05-20T10:29:17.428Z,15.70
2023-05-20T10:31:47.017Z,15.60
2023-05-20T10:34:17.565Z,15.70
2023-05-20T10:36:58.803Z,15.90
2023-05-20T10:39:29.588Z,15.40
2023-05-20T10:42:08.317Z,15.10
2023-05-20T10:44:44.481Z,14.90
2023-05-20T10:49:47.801Z,15.60
2023-05-20T10:52:18.686Z,15.90
2023-05-20T10:54:50.859Z,15.70
2023-05-20T10:57:20.149Z,15.30
2023-05-20T10:59:48.678Z,15.10
2023-05-20T11:02:18.398Z,14.80
2023-05-20T11:04:47.818Z,15.00
2023-05-20T11:07:28.873Z,14.90
2023-05-20T11:09:57.501Z,14.80
2023-05-20T11:12:26.949Z,14.90
2023-05-20T11:14:55.944Z,14.80
2023-05-20T11:17:24.701Z,15.10
2023-05-20T11:19:52.950Z,14.80
2023-05-20T11:22:21.984Z,15.10
2023-05-20T11:24:54.833Z,15.10
2023-05-20T11:27:23.677Z,15.00
2023-05-20T11:29:52.207Z,15.30
2023-05-20T11:32:21.617Z,15.10
2023-05-20T11:34:53.546Z,15.10
2023-05-20T11:37:26.650Z,14.90
2023-05-20T11:40:09.033Z,15.00
2023-05-20T11:42:38.290Z,15.00
2023-05-20T11:45:07.878Z,15.00
2023-05-20T11:47:36.270Z,15.50
2023-05-20T11:50:04.903Z,15.50
2023-05-20T11:52:35.462Z,16.20
2023-05-20T11:55:05.608Z,16.00
2023-05-20T11:57:33.896Z,15.70
2023-05-20T12:00:02.310Z,15.70
2023-05-20T12:02:33.383Z,15.80
2023-05-20T12:05:01.960Z,16.10
2023-05-20T12:07:30.630Z,16.20
2023-05-20T12:09:58.893Z,16.50
2023-05-20T12:12:31.744Z,16.70
2023-05-20T12:15:00.154Z,17.10
2023-05-20T12:17:28.494Z,16.60
2023-05-20T12:19:56.880Z,16.30
2023-05-20T12:22:29.912Z,16.10
2023-05-20T12:24:58.287Z,16.00
2023-05-20T12:27:26.403Z,15.90
2023-05-20T12:29:56.312Z,15.90
2023-05-20T12:32:24.911Z,15.80
2023-05-20T12:34:53.094Z,15.60
2023-05-20T12:37:21.643Z,15.70
2023-05-20T12:39:50.463Z,15.90
2023-05-20T12:42:18.879Z,16.10
2023-05-20T12:44:47.170Z,16.10
2023-05-20T12:47:17.019Z,15.80
2023-05-20T12:49:45.467Z,16.00
2023-05-20T12:52:21.974Z,15.80
2023-05-20T12:54:51.547Z,16.00
2023-05-20T12:57:19.937Z,16.00
2023-05-20T12:59:49.054Z,15.90
2023-05-20T13:02:18.781Z,15.90
2023-05-20T13:04:47.010Z,16.00
2023-05-20T13:07:15.667Z,16.10
2023-05-20T13:09:45.277Z,16.00
2023-05-20T13:12:13.522Z,15.80
2023-05-20T13:14:41.845Z,15.70
2023-05-20T13:17:10.033Z,15.70
2023-05-20T13:19:42.879Z,15.80
2023-05-20T13:22:11.887Z,15.90
2023-05-20T13:24:40.154Z,16.10
2023-05-20T13:27:08.389Z,16.10
2023-05-20T13:29:37.009Z,16.10
2023-05-20T13:32:05.585Z,16.10
2023-05-20T13:34:33.797Z,16.20
2023-05-20T13:37:03.382Z,16.30
2023-05-20T13:39:31.720Z,16.20
2023-05-20T13:42:00.434Z,16.10
2023-05-20T13:44:29.773Z,15.90
2023-05-20T13:46:59.068Z,16.10
2023-05-20T13:49:27.645Z,16.50
2023-05-20T13:51:55.957Z,16.50
2023-05-20T13:54:25.760Z,16.40
2023-05-20T13:56:54.655Z,16.30
2023-05-20T13:59:23.119Z,16.50
2023-05-20T14:01:51.688Z,16.60
2023-05-20T14:04:20.417Z,16.60
2023-05-20T14:06:48.842Z,16.70
2023-05-20T14:09:17.577Z,16.90
2023-05-20T14:11:48.019Z,16.90
2023-05-20T14:14:16.670Z,16.80
2023-05-20T14:16:44.978Z,16.80
2023-05-20T14:19:13.224Z,16.00
2023-05-20T14:21:41.529Z,15.80
2023-05-20T14:24:09.745Z,16.00
2023-05-20T14:26:37.999Z,15.80
2023-05-20T14:29:08.233Z,15.90
2023-05-20T14:31:38.614Z,15.80
2023-05-20T14:34:06.983Z,15.80
2023-05-20T14:36:35.476Z,15.90
2023-05-20T14:39:06.705Z,15.80
2023-05-20T14:41:35.321Z,15.70
2023-05-20T14:44:03.999Z,15.60
2023-05-20T14:46:33.856Z,15.60
2023-05-20T14:49:02.121Z,15.40
2023-05-20T14:51:30.247Z,15.70
2023-05-20T14:53:58.890Z,15.70
2023-05-20T14:56:27.788Z,15.60
2023-05-20T14:58:56.182Z,15.50
2023-05-20T15:01:24.376Z,15.30
2023-05-20T15:03:54.564Z,15.70
2023-05-20T15:06:22.826Z,15.80
2023-05-20T15:08:51.080Z,15.90
2023-05-20T15:11:19.421Z,16.10
2023-05-20T15:13:48.329Z,15.90
2023-05-20T15:16:18.277Z,15.60
2023-05-20T15:18:46.736Z,15.60
2023-05-20T15:21:16.835Z,15.50
2023-05-20T15:23:45.110Z,15.50
2023-05-20T15:26:13.329Z,15.40
2023-05-20T15:28:42.252Z,15.60
2023-05-20T15:31:10.532Z,15.40
2023-05-20T15:33:38.946Z,15.30
2023-05-20T15:36:08.206Z,15.50
2023-05-20T15:38:37.874Z,15.50
2023-05-20T15:41:06.757Z,15.60
2023-05-20T15:43:35.263Z,15.50
2023-05-20T15:46:03.574Z,15.70
2023-05-20T15:48:34.768Z,15.70
2023-05-20T15:51:03.300Z,15.70
2023-05-20T15:53:32.032Z,15.60
2023-05-20T15:56:02.146Z,15.60
2023-05-20T15:58:30.498Z,15.50
2023-05-20T16:00:58.801Z,15.50
2023-05-20T16:03:27.230Z,15.70
2023-05-20T16:05:56.271Z,15.90
2023-05-20T16:08:24.841Z,15.90
2023-05-20T16:10:53.959Z,15.90
2023-05-20T16:13:23.627Z,15.90
2023-05-20T16:15:52.336Z,15.80
2023-05-20T16:18:20.567Z,15.80
2023-05-20T16:20:49.319Z,15.90
2023-05-20T16:23:17.802Z,16.00
2023-05-20T16:25:46.268Z,16.00
2023-05-20T16:28:15.292Z,16.00
2023-05-20T16:30:45.335Z,16.10
2023-05-20T16:33:14.174Z,16.20
2023-05-20T16:35:42.460Z,16.30
2023-05-20T16:38:11.509Z,16.30
2023-05-20T16:40:40.051Z,16.30
2023-05-20T16:43:08.503Z,16.20
2023-05-20T16:45:36.787Z,16.10
2023-05-20T16:48:06.916Z,16.10
2023-05-20T16:50:35.492Z,16.00
2023-05-20T16:53:04.565Z,16.00
2023-05-20T16:55:32.849Z,15.80
2023-05-20T16:58:01.281Z,15.90
2023-05-20T17:00:30.196Z,15.90
2023-05-20T17:02:58.847Z,15.90
2023-05-20T17:05:28.770Z,15.90
2023-05-20T17:08:00.065Z,15.80
2023-05-20T17:10:29.010Z,15.70
2023-05-20T17:12:57.783Z,15.60
2023-05-20T17:15:26.042Z,15.60
2023-05-20T17:17:55.566Z,15.70
2023-05-20T17:20:23.991Z,15.70
2023-05-20T17:22:57.022Z,15.70
2023-05-20T17:25:25.807Z,15.50
2023-05-20T17:27:54.718Z,15.50
2023-05-20T17:30:23.527Z,15.40
2023-05-20T17:32:54.094Z,15.30
2023-05-20T17:35:25.623Z,15.30
2023-05-20T17:37:55.050Z,15.30
2023-05-20T17:40:24.834Z,15.30
2023-05-20T17:42:53.082Z,15.20
2023-05-20T17:45:21.501Z,15.20
2023-05-20T17:47:52.982Z,15.30
2023-05-20T17:50:21.249Z,15.30
2023-05-20T17:52:49.481Z,15.20
2023-05-20T17:55:18.343Z,15.10
2023-05-20T17:57:47.986Z,15.10
2023-05-20T18:00:21.269Z,15.30
2023-05-20T18:02:49.575Z,15.40
2023-05-20T18:05:18.241Z,15.40
2023-05-20T18:07:46.770Z,15.40
2023-05-20T18:10:15.401Z,15.40
2023-05-20T18:12:45.339Z,15.30
2023-05-20T18:15:16.991Z,15.30
2023-05-20T18:17:49.053Z,15.20
2023-05-20T18:20:17.381Z,15.30
2023-05-20T18:22:46.248Z,15.10
2023-05-20T18:25:15.513Z,15.10
2023-05-20T18:27:44.248Z,15.10
2023-05-20T18:30:14.081Z,15.10
2023-05-20T18:32:43.474Z,15.00
2023-05-20T18:35:12.261Z,15.00
2023-05-20T18:37:40.573Z,14.90
2023-05-20T18:40:10.842Z,14.80
2023-05-20T18:42:39.133Z,14.90
2023-05-20T18:45:09.068Z,14.80
2023-05-20T18:47:39.513Z,14.80
2023-05-20T18:50:09.020Z,14.80
2023-05-20T18:52:37.306Z,14.80
2023-05-20T18:55:06.141Z,14.80
2023-05-20T18:57:34.806Z,14.80
2023-05-20T19:00:04.757Z,14.80
2023-05-20T19:02:33.434Z,14.70
2023-05-20T19:05:03.164Z,14.70
2023-05-20T19:07:32.228Z,14.60
2023-05-20T19:10:00.610Z,14.60
2023-05-20T19:12:29.140Z,14.50
2023-05-20T19:14:57.956Z,14.50
2023-05-20T19:17:26.590Z,14.50
2023-05-20T19:19:55.402Z,14.50
2023-05-20T19:22:25.023Z,14.30
2023-05-20T19:24:53.516Z,14.30
2023-05-20T19:27:25.405Z,14.30
2023-05-20T19:29:55.807Z,14.30
2023-05-20T19:32:24.005Z,14.30
2023-05-20T19:34:53.525Z,14.20
2023-05-20T19:37:23.303Z,14.00
2023-05-20T19:39:53.084Z,14.00
2023-05-20T19:42:21.408Z,14.00
2023-05-20T19:44:50.421Z,13.90
2023-05-20T19:47:19.011Z,13.90
2023-05-20T19:49:50.506Z,13.70
2023-05-20T19:52:20.104Z,13.70
2023-05-20T19:54:48.678Z,13.70
2023-05-20T19:57:19.317Z,13.80
2023-05-20T19:59:48.367Z,13.80
2023-05-20T20:02:16.783Z,13.90
2023-05-20T20:04:45.217Z,13.90
2023-05-20T20:07:14.163Z,13.80
2023-05-20T20:09:44.978Z,13.80
2023-05-20T20:12:13.683Z,13.70
2023-05-20T20:14:46.172Z,13.60
2023-05-20T20:18:27.503Z,13.60
2023-05-20T20:21:05.987Z,13.60
2023-05-20T20:23:36.728Z,13.60
2023-05-20T20:26:06.276Z,13.40
2023-05-20T20:28:34.690Z,13.30
2023-05-20T20:31:04.312Z,13.30
2023-05-20T20:33:33.069Z,13.30
2023-05-20T20:36:02.738Z,13.30
2023-05-20T20:38:31.367Z,13.20
2023-05-20T20:41:04.039Z,13.20
2023-05-20T20:43:42.575Z,13.20
2023-05-20T20:46:14.728Z,13.20
2023-05-20T20:48:45.978Z,13.20
2023-05-20T20:51:14.571Z,13.20
2023-05-20T20:53:46.370Z,13.30
2023-05-20T20:56:14.749Z,13.30
2023-05-20T20:58:44.981Z,13.20
2023-05-20T21:01:17.587Z,13.20
2023-05-20T21:03:49.598Z,13.10
2023-05-20T21:06:18.220Z,13.20
2023-05-20T21:08:46.770Z,13.30
2023-05-20T21:11:15.270Z,13.30
2023-05-20T21:13:43.598Z,13.30
2023-05-20T21:16:11.859Z,13.30
2023-05-20T21:18:42.421Z,13.30
2023-05-20T21:21:14.071Z,13.30
2023-05-20T21:23:42.641Z,13.30
2023-05-20T21:26:10.958Z,13.40
2023-05-20T21:28:39.278Z,13.30
2023-05-20T21:31:08.068Z,13.30
2023-05-20T21:33:37.159Z,13.30
2023-05-20T21:36:07.553Z,13.30
2023-05-20T21:38:36.232Z,13.30
2023-05-20T21:41:04.694Z,13.20
2023-05-20T21:43:33.072Z,13.20
2023-05-20T21:46:01.573Z,13.20
2023-05-20T21:48:30.026Z,13.10
2023-05-20T21:50:58.748Z,13.10
2023-05-20T21:53:28.711Z,13.00
2023-05-20T21:55:57.076Z,13.10
2023-05-20T21:58:26.129Z,13.00
2023-05-20T22:00:54.517Z,13.00
2023-05-20T22:03:23.191Z,12.90
2023-05-20T22:05:51.793Z,13.10
2023-05-20T22:08:20.030Z,13.10
2023-05-20T22:10:49.672Z,13.20
2023-05-20T22:13:20.667Z,13.20
2023-05-20T22:15:48.988Z,13.20
2023-05-20T22:18:17.663Z,13.20
2023-05-20T22:20:45.967Z,13.20
2023-05-20T22:23:14.778Z,13.20
2023-05-20T22:25:43.313Z,13.20
2023-05-20T22:28:12.996Z,13.10
2023-05-20T22:30:41.282Z,13.00
2023-05-20T22:33:09.549Z,12.90
2023-05-20T22:35:37.871Z,12.90
2023-05-20T22:38:07.011Z,12.70
2023-05-20T22:40:35.265Z,12.80
2023-05-20T22:43:03.416Z,12.90
2023-05-20T22:45:33.036Z,12.90
2023-05-20T22:48:01.890Z,12.80
2023-05-20T22:50:30.236Z,12.80
2023-05-20T22:52:59.132Z,12.80
2023-05-20T22:55:27.368Z,12.70
2023-05-20T22:57:56.088Z,12.70
2023-05-20T23:00:24.793Z,12.70
2023-05-20T23:02:56.636Z,12.60
2023-05-20T23:05:25.034Z,12.60
2023-05-20T23:07:53.914Z,12.60
2023-05-20T23:10:22.452Z,12.70
2023-05-20T23:12:51.136Z,12.80
2023-05-20T23:15:20.560Z,12.90
2023-05-20T23:17:51.359Z,12.90
2023-05-20T23:20:23.066Z,12.90
2023-05-20T23:22:52.419Z,12.90
2023-05-20T23:25:20.767Z,12.80
2023-05-20T23:27:52.031Z,12.80
2023-05-20T23:30:20.695Z,12.90
2023-05-20T23:32:50.014Z,12.80
2023-05-20T23:35:18.667Z,12.80
2023-05-20T23:37:48.678Z,12.70
2023-05-20T23:40:16.950Z,12.70
2023-05-20T23:42:45.220Z,12.70
2023-05-20T23:45:14.093Z,12.70
2023-05-20T23:47:43.725Z,12.60
2023-05-20T23:50:13.367Z,12.70
2023-05-20T23:52:41.699Z,12.80
2023-05-20T23:55:14.303Z,12.70
2023-05-20T23:57:43.132Z,12.60
